createdAt,value
2017-08-18T00:00:47.510Z,79.70
2017-08-18T00:03:15.258Z,80.00
2017-08-18T00:05:43.006Z,80.20
2017-08-18T00:08:10.762Z,80.10
2017-08-18T00:10:38.611Z,80.20
2017-08-18T00:13:06.248Z,80.30
2017-08-18T00:15:33.893Z,80.40
2017-08-18T00:18:01.642Z,80.30
2017-08-18T00:20:29.388Z,80.40
2017-08-18T00:22:57.060Z,80.30
2017-08-18T00:25:24.781Z,80.00
2017-08-18T00:27:52.430Z,80.20
2017-08-18T00:30:20.172Z,80.10
2017-08-18T00:32:47.881Z,80.10
2017-08-18T00:35:15.563Z,80.40
2017-08-18T00:37:43.415Z,80.70
2017-08-18T00:40:11.160Z,80.90
2017-08-18T00:42:38.910Z,80.80
2017-08-18T00:45:06.561Z,80.80
2017-08-18T00:47:34.302Z,80.90
2017-08-18T00:50:01.966Z,81.10
2017-08-18T00:52:29.694Z,81.00
2017-08-18T00:54:57.447Z,81.10
2017-08-18T00:57:25.188Z,81.10
2017-08-18T00:59:52.835Z,81.10
2017-08-18T01:02:20.580Z,81.10
2017-08-18T01:04:48.327Z,81.20
2017-08-18T01:07:16.034Z,81.20
2017-08-18T01:09:43.823Z,81.40
2017-08-18T01:12:11.480Z,81.40
2017-08-18T01:14:39.215Z,81.70
2017-08-18T01:17:06.985Z,81.60
2017-08-18T01:19:34.662Z,81.60
2017-08-18T01:22:02.355Z,81.50
2017-08-18T01:24:30.103Z,81.40
2017-08-18T01:26:57.746Z,81.20
2017-08-18T01:29:25.392Z,81.10
2017-08-18T01:31:53.248Z,81.00
2017-08-18T01:34:20.885Z,80.80
2017-08-18T01:36:48.633Z,80.80
2017-08-18T01:39:16.318Z,80.80
2017-08-18T01:41:43.939Z,80.80
2017-08-18T01:44:11.680Z,80.70
2017-08-18T01:46:39.419Z,80.50
2017-08-18T01:49:07.045Z,80.50
2017-08-18T01:51:34.673Z,80.60
2017-08-18T01:54:02.354Z,80.30
2017-08-18T01:56:29.984Z,80.50
2017-08-18T01:58:57.614Z,80.60
2017-08-18T02:01:25.390Z,80.90
2017-08-18T02:03:53.137Z,81.10
2017-08-18T02:06:20.766Z,81.20
2017-08-18T02:08:48.450Z,81.20
2017-08-18T02:11:16.175Z,81.30
2017-08-18T02:13:43.817Z,81.20
2017-08-18T02:16:11.510Z,81.20
2017-08-18T02:18:39.138Z,81.40
2017-08-18T02:21:06.771Z,81.10
2017-08-18T02:23:34.506Z,81.10
2017-08-18T02:26:02.251Z,81.20
2017-08-18T02:28:29.997Z,81.30
2017-08-18T02:30:57.852Z,81.30
2017-08-18T02:33:25.490Z,81.40
2017-08-18T02:35:53.121Z,81.80
2017-08-18T02:38:20.883Z,82.10
2017-08-18T02:40:48.529Z,82.20
2017-08-18T02:43:16.167Z,82.20
2017-08-18T02:45:43.858Z,82.30
2017-08-18T02:48:11.564Z,82.10
2017-08-18T02:50:39.213Z,82.00
2017-08-18T02:53:06.959Z,82.00
2017-08-18T02:55:34.707Z,82.10
2017-08-18T02:58:02.453Z,82.10
2017-08-18T03:00:30.302Z,82.20
2017-08-18T03:02:57.933Z,82.40
2017-08-18T03:05:25.694Z,82.30
2017-08-18T03:07:53.546Z,82.30
2017-08-18T03:10:21.230Z,82.20
2017-08-18T03:12:48.865Z,82.10
2017-08-18T03:15:16.579Z,82.00
2017-08-18T03:17:44.329Z,81.80
2017-08-18T03:20:11.971Z,82.00
2017-08-18T03:22:39.726Z,81.80
2017-08-18T03:25:07.470Z,81.60
2017-08-18T03:27:35.099Z,81.40
2017-08-18T03:30:02.965Z,81.60
2017-08-18T03:32:30.603Z,81.60
2017-08-18T03:34:58.252Z,81.80
2017-08-18T03:37:26.001Z,81.80
2017-08-18T03:39:53.644Z,81.80
2017-08-18T03:42:21.273Z,81.90
2017-08-18T03:44:49.037Z,82.10
2017-08-18T03:47:16.783Z,81.90
2017-08-18T03:49:44.434Z,82.00
2017-08-18T03:52:12.176Z,82.30
2017-08-18T03:54:39.809Z,82.10
2017-08-18T03:57:07.445Z,82.30
2017-08-18T03:59:35.318Z,82.40
2017-08-18T04:02:02.949Z,82.30
2017-08-18T04:04:30.607Z,82.30
2017-08-18T04:06:58.382Z,82.30
2017-08-18T04:09:26.101Z,82.60
2017-08-18T04:11:53.734Z,82.80
2017-08-18T04:14:21.595Z,83.10
2017-08-18T04:16:49.270Z,83.30
2017-08-18T04:19:16.987Z,83.40
2017-08-18T04:21:44.735Z,83.50
2017-08-18T04:24:12.387Z,83.60
2017-08-18T04:26:40.128Z,83.70
2017-08-18T04:29:07.842Z,83.50
2017-08-18T04:31:35.528Z,83.70
2017-08-18T04:34:03.268Z,83.50
2017-08-18T04:36:31.118Z,83.40
2017-08-18T04:38:58.745Z,83.60
2017-08-18T04:41:26.377Z,83.20
2017-08-18T04:43:54.063Z,82.90
2017-08-18T04:46:21.801Z,82.90
2017-08-18T04:48:49.442Z,82.90
2017-08-18T04:51:17.190Z,82.90
2017-08-18T04:53:44.822Z,83.10
2017-08-18T04:56:12.462Z,83.10
2017-08-18T04:58:40.225Z,83.30
2017-08-18T05:01:07.865Z,83.10
2017-08-18T05:03:35.523Z,83.00
2017-08-18T05:06:03.269Z,82.70
2017-08-18T05:08:31.014Z,82.50
2017-08-18T05:10:58.760Z,82.20
2017-08-18T05:13:26.479Z,81.70
2017-08-18T05:15:54.152Z,81.40
2017-08-18T05:18:21.800Z,80.50
2017-08-18T05:20:49.603Z,79.90
2017-08-18T05:23:17.243Z,79.90
2017-08-18T05:25:44.889Z,79.60
2017-08-18T05:28:12.615Z,79.50
2017-08-18T05:30:40.270Z,79.70
2017-08-18T05:33:07.917Z,79.90
2017-08-18T05:35:35.620Z,80.20
2017-08-18T05:38:03.368Z,80.50
2017-08-18T05:40:31.116Z,80.90
2017-08-18T05:42:58.803Z,80.10
2017-08-18T05:45:26.511Z,79.30
2017-08-18T05:47:54.254Z,78.30
2017-08-18T05:50:21.952Z,78.00
2017-08-18T05:52:49.589Z,77.60
2017-08-18T05:55:17.219Z,77.40
2017-08-18T05:57:45.037Z,77.90
2017-08-18T06:00:12.681Z,76.70
2017-08-18T06:02:40.325Z,76.70
2017-08-18T06:05:08.029Z,75.80
2017-08-18T06:07:35.669Z,75.80
2017-08-18T06:10:03.305Z,76.10
2017-08-18T06:12:30.993Z,75.30
2017-08-18T06:14:58.655Z,75.50
2017-08-18T06:17:26.402Z,75.00
2017-08-18T06:19:54.252Z,74.70
2017-08-18T06:22:21.999Z,74.10
2017-08-18T06:24:49.746Z,74.10
2017-08-18T06:27:17.445Z,73.60
2017-08-18T06:29:45.091Z,73.00
2017-08-18T06:32:12.782Z,73.20
2017-08-18T06:34:40.475Z,71.80
2017-08-18T06:37:08.177Z,70.90
2017-08-18T06:39:35.825Z,71.30
2017-08-18T06:42:03.526Z,70.00
2017-08-18T06:44:31.215Z,70.30
2017-08-18T06:46:58.962Z,70.00
2017-08-18T06:49:26.666Z,70.20
2017-08-18T06:51:54.303Z,70.50
2017-08-18T06:54:21.946Z,70.50
2017-08-18T06:56:49.629Z,70.60
2017-08-18T06:59:17.291Z,70.60
2017-08-18T07:01:44.918Z,69.30
2017-08-18T07:04:12.658Z,67.70
2017-08-18T07:06:40.293Z,68.70
2017-08-18T07:09:07.970Z,67.70
2017-08-18T07:11:36.038Z,68.10
2017-08-18T07:14:03.676Z,68.10
2017-08-18T07:16:31.524Z,68.60
2017-08-18T07:18:59.217Z,67.30
2017-08-18T07:21:26.913Z,67.80
2017-08-18T07:23:54.571Z,67.70
2017-08-18T07:26:22.303Z,68.30
2017-08-18T07:28:49.947Z,68.70
2017-08-18T07:31:17.579Z,69.50
2017-08-18T07:33:45.270Z,69.50
2017-08-18T07:36:12.985Z,68.60
2017-08-18T07:38:40.733Z,68.30
2017-08-18T07:41:08.443Z,68.20
2017-08-18T07:43:36.086Z,67.20
2017-08-18T07:46:03.771Z,66.70
2017-08-18T07:48:31.479Z,66.80
2017-08-18T07:50:59.164Z,66.90
2017-08-18T07:53:26.910Z,66.70
2017-08-18T07:55:54.612Z,65.80
2017-08-18T07:58:22.274Z,63.70
2017-08-18T08:00:49.947Z,64.20
2017-08-18T08:03:17.634Z,63.90
2017-08-18T08:05:45.278Z,63.50
2017-08-18T08:08:12.911Z,63.80
2017-08-18T08:10:41.073Z,63.90
2017-08-18T08:13:08.788Z,63.90
2017-08-18T08:15:36.431Z,64.20
2017-08-18T08:18:04.180Z,62.40
2017-08-18T08:20:31.927Z,62.70
2017-08-18T08:22:59.597Z,63.30
2017-08-18T08:25:27.318Z,62.00
2017-08-18T08:27:54.981Z,59.60
2017-08-18T08:30:22.710Z,59.90
2017-08-18T08:32:50.402Z,62.00
2017-08-18T08:35:18.104Z,61.60
2017-08-18T08:37:45.737Z,61.40
2017-08-18T08:40:13.493Z,60.60
2017-08-18T08:42:41.139Z,61.10
2017-08-18T08:45:08.888Z,61.40
2017-08-18T08:47:36.641Z,61.80
2017-08-18T08:50:04.270Z,61.70
2017-08-18T08:52:32.027Z,59.50
2017-08-18T08:54:59.718Z,59.90
2017-08-18T08:57:27.418Z,60.70
2017-08-18T08:59:55.062Z,61.20
2017-08-18T09:02:22.745Z,59.30
2017-08-18T09:04:50.386Z,58.30
2017-08-18T09:07:18.038Z,58.40
2017-08-18T09:09:45.723Z,58.50
2017-08-18T09:12:13.389Z,58.50
2017-08-18T09:14:41.136Z,59.30
2017-08-18T09:17:08.887Z,59.90
2017-08-18T09:19:36.634Z,59.80
2017-08-18T09:22:04.294Z,59.40
2017-08-18T09:24:32.031Z,57.40
2017-08-18T09:26:59.678Z,57.70
2017-08-18T09:29:27.330Z,59.70
2017-08-18T09:31:55.123Z,58.20
2017-08-18T09:34:22.765Z,58.60
2017-08-18T09:36:50.556Z,58.80
2017-08-18T09:39:18.261Z,58.10
2017-08-18T09:41:45.948Z,57.50
2017-08-18T09:44:13.582Z,58.10
2017-08-18T09:46:41.366Z,57.40
2017-08-18T09:49:20.789Z,58.30
2017-08-18T09:52:00.606Z,58.30
2017-08-18T09:57:45.027Z,56.60
2017-08-18T10:00:12.772Z,56.40
2017-08-18T10:02:40.520Z,58.10
2017-08-18T10:05:08.219Z,55.70
2017-08-18T10:07:35.921Z,58.20
2017-08-18T10:10:03.606Z,57.30
2017-08-18T10:12:31.409Z,59.10
2017-08-18T10:14:59.063Z,56.50
2017-08-18T10:17:26.802Z,56.50
2017-08-18T10:19:54.523Z,57.40
2017-08-18T10:22:22.145Z,58.70
2017-08-18T10:24:49.783Z,57.60
2017-08-18T10:27:17.587Z,55.90
2017-08-18T10:29:45.220Z,55.70
2017-08-18T10:32:12.873Z,55.40
2017-08-18T10:34:40.560Z,55.70
2017-08-18T10:37:08.269Z,56.10
2017-08-18T10:39:36.022Z,57.00
2017-08-18T10:42:03.878Z,58.10
2017-08-18T10:44:31.613Z,58.30
2017-08-18T10:46:59.363Z,58.80
2017-08-18T10:49:27.106Z,57.70
2017-08-18T10:51:54.750Z,58.30
2017-08-18T10:54:22.398Z,56.50
2017-08-18T10:56:50.143Z,57.40
2017-08-18T10:59:17.890Z,56.60
2017-08-18T11:01:45.638Z,57.30
2017-08-18T11:04:13.389Z,56.80
2017-08-18T11:06:41.026Z,54.60
2017-08-18T11:09:08.657Z,55.00
2017-08-18T11:11:36.424Z,55.30
2017-08-18T11:14:04.073Z,55.70
2017-08-18T11:16:31.816Z,56.70
2017-08-18T11:18:59.563Z,54.90
2017-08-18T11:21:27.311Z,54.60
2017-08-18T11:23:54.955Z,55.40
2017-08-18T11:26:22.702Z,54.30
2017-08-18T11:28:50.432Z,55.20
2017-08-18T11:31:18.094Z,55.30
2017-08-18T11:33:45.841Z,54.90
2017-08-18T11:36:13.478Z,55.30
2017-08-18T11:38:41.114Z,55.30
2017-08-18T11:41:08.851Z,57.00
2017-08-18T11:43:36.490Z,58.50
2017-08-18T11:46:04.170Z,55.30
2017-08-18T11:48:31.898Z,55.90
2017-08-18T11:50:59.563Z,53.90
2017-08-18T11:53:27.308Z,54.40
2017-08-18T11:55:54.994Z,53.50
2017-08-18T11:58:22.702Z,53.30
2017-08-18T12:00:50.345Z,54.40
2017-08-18T12:03:18.093Z,52.50
2017-08-18T12:05:45.840Z,52.90
2017-08-18T12:08:13.483Z,52.70
2017-08-18T12:10:41.231Z,52.80
2017-08-18T12:13:08.858Z,53.30
2017-08-18T12:15:36.523Z,52.00
2017-08-18T12:18:04.374Z,51.30
2017-08-18T12:20:32.044Z,50.80
2017-08-18T12:22:59.766Z,51.50
2017-08-18T12:25:27.512Z,51.00
2017-08-18T12:27:55.156Z,52.80
2017-08-18T12:30:22.802Z,52.40
2017-08-18T12:32:50.549Z,50.60
2017-08-18T12:35:18.299Z,50.80
2017-08-18T12:37:46.043Z,51.10
2017-08-18T12:40:13.738Z,51.10
2017-08-18T12:42:41.412Z,52.40
2017-08-18T12:45:09.186Z,51.00
2017-08-18T12:47:36.907Z,50.70
2017-08-18T12:50:04.679Z,51.40
2017-08-18T12:52:32.426Z,51.40
2017-08-18T12:55:00.274Z,51.50
2017-08-18T12:57:27.928Z,53.00
2017-08-18T12:59:55.668Z,51.90
2017-08-18T13:02:23.377Z,49.70
2017-08-18T13:04:51.011Z,51.60
2017-08-18T13:07:18.705Z,50.20
2017-08-18T13:09:46.758Z,50.40
2017-08-18T13:12:14.390Z,52.10
2017-08-18T13:14:42.049Z,52.60
2017-08-18T13:17:09.800Z,51.80
2017-08-18T13:19:37.442Z,51.90
2017-08-18T13:22:05.191Z,50.40
2017-08-18T13:24:32.902Z,50.50
2017-08-18T13:27:00.656Z,51.50
2017-08-18T13:29:28.328Z,51.20
2017-08-18T13:31:56.076Z,51.10
2017-08-18T13:34:23.702Z,51.60
2017-08-18T13:36:51.467Z,50.00
2017-08-18T13:39:19.157Z,50.00
2017-08-18T13:41:46.793Z,50.70
2017-08-18T13:44:14.442Z,51.70
2017-08-18T13:46:42.149Z,51.50
2017-08-18T13:49:10.002Z,51.00
2017-08-18T13:51:37.750Z,50.20
2017-08-18T13:54:05.497Z,51.20
2017-08-18T13:56:33.159Z,50.70
2017-08-18T13:59:00.889Z,49.50
2017-08-18T14:01:28.580Z,49.10
2017-08-18T14:03:56.278Z,51.10
2017-08-18T14:06:23.923Z,51.70
2017-08-18T14:08:51.611Z,51.70
2017-08-18T14:11:19.242Z,50.90
2017-08-18T14:13:46.889Z,49.30
2017-08-18T14:16:14.607Z,51.10
2017-08-18T14:18:42.351Z,50.30
2017-08-18T14:21:10.100Z,50.90
2017-08-18T14:23:37.826Z,50.20
2017-08-18T14:26:11.057Z,49.30
2017-08-18T14:28:39.175Z,50.60
2017-08-18T14:31:06.824Z,51.00
2017-08-18T14:33:34.457Z,51.00
2017-08-18T14:36:02.318Z,50.50
2017-08-18T14:38:30.066Z,51.40
2017-08-18T14:40:57.706Z,49.30
2017-08-18T14:43:25.457Z,50.70
2017-08-18T14:45:53.205Z,50.00
2017-08-18T14:48:20.952Z,50.50
2017-08-18T14:50:48.642Z,49.80
2017-08-18T14:53:16.275Z,49.70
2017-08-18T14:55:43.994Z,50.60
2017-08-18T14:58:11.840Z,51.20
2017-08-18T15:00:39.587Z,51.30
2017-08-18T15:03:07.335Z,50.10
2017-08-18T15:05:35.042Z,50.80
2017-08-18T15:08:02.728Z,50.70
2017-08-18T15:10:30.370Z,50.40
2017-08-18T15:12:58.118Z,50.80
2017-08-18T15:15:25.762Z,51.30
2017-08-18T15:17:53.408Z,51.20
2017-08-18T15:20:21.105Z,52.10
2017-08-18T15:22:48.800Z,51.50
2017-08-18T15:25:16.446Z,50.90
2017-08-18T15:27:44.145Z,50.70
2017-08-18T15:30:11.836Z,50.60
2017-08-18T15:32:39.484Z,51.50
2017-08-18T15:35:07.196Z,52.80
2017-08-18T15:37:34.874Z,52.60
2017-08-18T15:40:02.621Z,52.90
2017-08-18T15:42:30.301Z,53.70
2017-08-18T15:44:58.014Z,54.20
2017-08-18T15:47:25.649Z,53.80
2017-08-18T15:49:53.405Z,53.10
2017-08-18T15:52:21.051Z,53.50
2017-08-18T15:54:48.677Z,53.70
2017-08-18T15:57:16.442Z,54.30
2017-08-18T15:59:44.066Z,54.50
2017-08-18T16:02:11.733Z,55.00
2017-08-18T16:04:39.426Z,54.60
2017-08-18T16:07:07.127Z,55.10
2017-08-18T16:09:34.777Z,55.00
2017-08-18T16:12:02.519Z,55.30
2017-08-18T16:14:30.155Z,55.50
2017-08-18T16:16:57.912Z,56.30
2017-08-18T16:19:25.658Z,56.50
2017-08-18T16:21:53.405Z,56.90
2017-08-18T16:24:21.152Z,55.80
2017-08-18T16:26:48.899Z,55.90
2017-08-18T16:29:16.544Z,56.00
2017-08-18T16:31:44.290Z,56.20
2017-08-18T16:34:11.961Z,56.20
2017-08-18T16:36:39.597Z,56.40
2017-08-18T16:39:07.330Z,55.90
2017-08-18T16:41:35.080Z,55.60
2017-08-18T16:44:02.824Z,56.70
2017-08-18T16:46:30.468Z,56.80
2017-08-18T16:48:58.170Z,56.80
2017-08-18T16:51:25.811Z,56.90
2017-08-18T16:53:53.448Z,57.10
2017-08-18T16:56:21.149Z,57.40
2017-08-18T16:58:48.898Z,57.20
2017-08-18T17:01:16.541Z,57.40
2017-08-18T17:03:44.234Z,56.90
2017-08-18T17:06:11.898Z,57.30
2017-08-18T17:08:39.539Z,57.70
2017-08-18T17:11:07.238Z,58.00
2017-08-18T17:13:34.879Z,57.90
2017-08-18T17:16:02.574Z,58.30
2017-08-18T17:18:30.302Z,58.30
2017-08-18T17:20:58.012Z,59.10
2017-08-18T17:23:25.654Z,59.40
2017-08-18T17:25:53.435Z,59.90
2017-08-18T17:28:21.149Z,60.70
2017-08-18T17:30:48.898Z,61.00
2017-08-18T17:33:16.816Z,60.90
2017-08-18T17:35:44.596Z,61.30
2017-08-18T17:38:12.422Z,61.40
2017-08-18T17:40:40.121Z,61.70
2017-08-18T17:43:07.753Z,62.20
2017-08-18T17:45:35.483Z,62.60
2017-08-18T17:48:03.333Z,63.10
2017-08-18T17:50:31.011Z,63.50
2017-08-18T17:52:58.658Z,64.20
2017-08-18T17:55:26.366Z,64.30
2017-08-18T17:57:54.117Z,64.30
2017-08-18T18:00:21.811Z,64.70
2017-08-18T18:02:49.503Z,64.90
2017-08-18T18:05:17.152Z,65.30
2017-08-18T18:07:44.801Z,65.80
2017-08-18T18:10:12.603Z,66.10
2017-08-18T18:12:40.294Z,66.20
2017-08-18T18:15:07.939Z,66.40
2017-08-18T18:17:35.679Z,66.50
2017-08-18T18:20:03.387Z,66.90
2017-08-18T18:22:31.029Z,67.20
2017-08-18T18:24:58.725Z,67.70
2017-08-18T18:27:26.367Z,67.80
2017-08-18T18:29:54.115Z,68.60
2017-08-18T18:32:22.254Z,68.10
2017-08-18T18:34:49.951Z,68.20
2017-08-18T18:37:17.607Z,68.30
2017-08-18T18:39:45.503Z,68.90
2017-08-18T18:42:13.146Z,69.00
2017-08-18T18:44:40.818Z,69.30
2017-08-18T18:47:08.554Z,69.40
2017-08-18T18:49:36.300Z,69.30
2017-08-18T18:52:03.964Z,69.50
2017-08-18T18:54:31.678Z,69.50
2017-08-18T18:56:59.336Z,69.60
2017-08-18T18:59:26.974Z,69.90
2017-08-18T19:01:54.660Z,70.00
2017-08-18T19:04:22.372Z,70.40
2017-08-18T19:06:50.120Z,71.10
2017-08-18T19:09:17.866Z,71.50
2017-08-18T19:11:45.616Z,68.20
2017-08-18T19:14:13.389Z,67.40
2017-08-18T19:16:41.094Z,66.40
2017-08-18T19:19:09.064Z,67.30
2017-08-18T19:21:36.811Z,69.20
2017-08-18T19:24:04.558Z,71.20
2017-08-18T19:26:32.200Z,72.60
2017-08-18T19:28:59.949Z,70.80
2017-08-18T19:31:27.631Z,85.20
2017-08-18T19:33:56.070Z,92.00
2017-08-18T19:36:23.706Z,92.40
2017-08-18T19:38:53.271Z,93.90
2017-08-18T19:41:20.906Z,95.10
2017-08-18T19:43:49.205Z,95.90
2017-08-18T19:46:16.906Z,96.50
2017-08-18T19:48:44.538Z,97.20
2017-08-18T19:51:13.053Z,96.70
2017-08-18T19:53:40.763Z,96.40
2017-08-18T19:56:08.447Z,95.20
2017-08-18T19:58:36.091Z,95.10
2017-08-18T20:01:03.794Z,96.00
2017-08-18T20:03:31.488Z,94.90
2017-08-18T20:05:59.158Z,95.70
2017-08-18T20:08:26.926Z,95.50
2017-08-18T20:10:54.622Z,94.80
2017-08-18T20:13:22.317Z,95.60
2017-08-18T20:15:50.936Z,95.10
2017-08-18T20:18:18.686Z,94.70
2017-08-18T20:20:46.343Z,96.40
2017-08-18T20:23:14.075Z,95.90
2017-08-18T20:25:41.924Z,96.50
2017-08-18T20:28:09.675Z,96.90
2017-08-18T20:30:38.162Z,97.30
2017-08-18T20:33:05.814Z,96.40
2017-08-18T20:35:33.530Z,95.60
2017-08-18T20:38:01.219Z,95.20
2017-08-18T20:40:28.922Z,92.90
2017-08-18T20:42:56.672Z,92.30
2017-08-18T20:45:24.417Z,93.20
2017-08-18T20:47:52.165Z,93.30
2017-08-18T20:50:19.793Z,93.50
2017-08-18T20:52:47.497Z,92.90
2017-08-18T20:55:15.130Z,93.60
2017-08-18T20:57:42.845Z,93.80
2017-08-18T21:00:10.591Z,94.00
2017-08-18T21:02:38.342Z,92.90
2017-08-18T21:05:05.982Z,93.90
2017-08-18T21:07:33.734Z,93.50
2017-08-18T21:10:01.481Z,93.30
2017-08-18T21:12:29.124Z,93.30
2017-08-18T21:14:56.801Z,93.70
2017-08-18T21:17:24.438Z,93.50
2017-08-18T21:19:52.074Z,94.40
2017-08-18T21:22:19.806Z,94.60
2017-08-18T21:24:47.553Z,95.20
2017-08-18T21:27:15.304Z,94.30
2017-08-18T21:29:43.047Z,93.60
2017-08-18T21:32:10.795Z,94.10
2017-08-18T21:34:38.436Z,93.20
2017-08-18T21:37:06.190Z,93.50
2017-08-18T21:39:33.821Z,95.10
2017-08-18T21:42:01.580Z,93.10
2017-08-18T21:44:29.265Z,94.40
2017-08-18T21:46:56.902Z,93.30
2017-08-18T21:49:24.618Z,93.20
2017-08-18T21:51:52.365Z,93.40
2017-08-18T21:54:20.002Z,94.20
2017-08-18T21:56:47.756Z,94.00
2017-08-18T21:59:15.450Z,93.00
2017-08-18T22:01:43.165Z,92.90
2017-08-18T22:04:10.895Z,92.90
2017-08-18T22:06:38.648Z,93.80
2017-08-18T22:09:06.393Z,93.70
2017-08-18T22:11:34.035Z,94.00
2017-08-18T22:14:01.719Z,94.40
2017-08-18T22:16:29.347Z,93.80
2017-08-18T22:18:57.074Z,94.30
2017-08-18T22:21:24.822Z,93.90
2017-08-18T22:23:52.465Z,93.70
2017-08-18T22:26:20.102Z,93.90
2017-08-18T22:28:47.858Z,93.80
2017-08-18T22:31:15.502Z,94.90
2017-08-18T22:33:43.146Z,94.10
2017-08-18T22:36:10.825Z,93.60
2017-08-18T22:38:38.446Z,94.40
2017-08-18T22:41:06.078Z,94.00
2017-08-18T22:43:33.836Z,94.20
2017-08-18T22:46:01.475Z,94.10
2017-08-18T22:48:29.223Z,93.60
2017-08-18T22:50:56.906Z,94.10
2017-08-18T22:53:24.615Z,94.40
2017-08-18T22:55:52.260Z,94.00
2017-08-18T22:58:19.946Z,92.80
2017-08-18T23:00:47.582Z,92.90
2017-08-18T23:03:15.210Z,92.70
2017-08-18T23:05:42.941Z,92.80
2017-08-18T23:08:10.570Z,91.70
2017-08-18T23:10:38.236Z,91.40
2017-08-18T23:13:05.922Z,92.10
2017-08-18T23:15:33.560Z,90.80
2017-08-18T23:18:01.194Z,90.70
2017-08-18T23:20:28.913Z,90.90
2017-08-18T23:22:56.557Z,91.00
2017-08-18T23:25:24.203Z,91.20
2017-08-18T23:27:51.950Z,89.60
2017-08-18T23:30:19.581Z,90.80
2017-08-18T23:32:47.240Z,89.80
2017-08-18T23:35:14.945Z,90.30
2017-08-18T23:37:42.576Z,90.60
2017-08-18T23:40:10.202Z,91.60
2017-08-18T23:42:37.893Z,89.70
2017-08-18T23:45:05.569Z,89.90
2017-08-18T23:47:33.316Z,89.20
2017-08-18T23:50:01.063Z,87.40
2017-08-18T23:52:28.708Z,88.30
2017-08-18T23:54:56.352Z,88.80
2017-08-18T23:57:24.082Z,89.50
2017-08-18T23:59:51.743Z,89.60
